Time;durP1;ratioP1;P1;durP2;ratioP2;P2;SDS_P1;SDS_P2;PMS_P1;PMS_P2;Temp;Humidity;BMP_temperature;BMP_pressure;BME280_temperature;BME280_humidity;BME280_pressure;Samples;Min_cycle;Max_cycle;Signal;HPM_P1;HPM_P2
2021/10/18 00:05:34;;;;;;;4.70;3.55;;;;;;;;;;21091628;28;20048;-65
2021/10/18 00:15:36;;;;;;;5.40;3.73;;;;;;;;;;21102982;28;20055;-67
2021/10/18 00:25:38;;;;;;;4.88;4.38;;;;;;;;;;21080790;28;20133;-68
2021/10/18 00:35:40;;;;;;;8.15;5.00;;;;;;;;;;21079716;28;20059;-69
2021/10/18 00:45:43;;;;;;;6.00;5.40;;;;;;;;;;21080451;28;20557;-69
2021/10/18 00:55:46;;;;;;;7.40;5.80;;;;;;;;;;21092083;28;20052;-69
2021/10/18 01:05:48;;;;;;;8.80;5.03;;;;;;;;;;21103673;28;20044;-68
2021/10/18 01:15:52;;;;;;;7.25;6.00;;;;;;;;;;21100028;28;20048;-68
2021/10/18 01:25:54;;;;;;;7.63;6.60;;;;;;;;;;21094506;28;20400;-68
2021/10/18 01:35:58;;;;;;;9.60;5.53;;;;;;;;;;21093855;28;20575;-68
2021/10/18 01:46:03;;;;;;;7.82;7.03;;;;;;;;;;21098553;28;20488;-69
2021/10/18 01:56:09;;;;;;;9.95;6.40;;;;;;;;;;21091733;28;20075;-68
2021/10/18 02:06:12;;;;;;;8.95;7.32;;;;;;;;;;21090270;28;20132;-66
2021/10/18 02:16:15;;;;;;;9.67;8.03;;;;;;;;;;21089697;28;20135;-67
2021/10/18 02:26:18;;;;;;;8.93;8.02;;;;;;;;;;21088674;28;20399;-67
2021/10/18 02:36:23;;;;;;;9.85;8.80;;;;;;;;;;21088256;28;20088;-68
2021/10/18 02:46:28;;;;;;;10.43;9.00;;;;;;;;;;21087610;28;20106;-69
2021/10/18 02:56:49;;;;;;;10.63;8.82;;;;;;;;;;21085848;28;20060;-70
2021/10/18 03:07:11;;;;;;;11.85;8.85;;;;;;;;;;21086769;28;20372;-69
2021/10/18 03:17:33;;;;;;;9.25;8.27;;;;;;;;;;21085314;28;20051;-68
2021/10/18 03:27:45;;;;;;;10.70;8.80;;;;;;;;;;21094090;28;20044;-67
2021/10/18 03:37:59;;;;;;;10.30;8.35;;;;;;;;;;21083853;28;20499;-68
2021/10/18 03:48:15;;;;;;;10.40;8.27;;;;;;;;;;21082416;28;20123;-68
2021/10/18 03:58:23;;;;;;;9.52;8.35;;;;;;;;;;21083478;28;20055;-69
2021/10/18 04:08:32;;;;;;;10.70;8.48;;;;;;;;;;21081407;28;20086;-67
2021/10/18 04:18:37;;;;;;;14.98;9.07;;;;;;;;;;21079801;28;20079;-68
2021/10/18 04:28:45;;;;;;;10.23;9.18;;;;;;;;;;21078021;28;20048;-69
2021/10/18 04:38:49;;;;;;;11.00;9.23;;;;;;;;;;21080002;28;20477;-68
2021/10/18 04:48:59;;;;;;;9.55;7.28;;;;;;;;;;21078998;28;20383;-68
2021/10/18 04:59:02;;;;;;;10.17;8.10;;;;;;;;;;21078501;28;20052;-68
2021/10/18 05:09:05;;;;;;;8.15;7.35;;;;;;;;;;21079147;28;20044;-69
2021/10/18 05:19:08;;;;;;;10.75;8.77;;;;;;;;;;21076538;28;20076;-68
2021/10/18 05:29:10;;;;;;;10.55;9.32;;;;;;;;;;21077073;28;20128;-72
2021/10/18 05:39:12;;;;;;;10.73;9.10;;;;;;;;;;21083143;28;20075;-68
2021/10/18 05:49:16;;;;;;;11.02;9.75;;;;;;;;;;21092794;28;20060;-67
2021/10/18 05:59:19;;;;;;;18.92;9.80;;;;;;;;;;21089673;28;20518;-69
2021/10/18 06:09:21;;;;;;;17.08;9.50;;;;;;;;;;21089592;28;20044;-67
2021/10/18 06:19:23;;;;;;;12.38;9.80;;;;;;;;;;21070347;28;20052;-68
2021/10/18 06:29:27;;;;;;;11.20;9.20;;;;;;;;;;21087639;28;20055;-68
2021/10/18 06:39:30;;;;;;;12.90;10.13;;;;;;;;;;21087256;28;20048;-68
2021/10/18 06:49:33;;;;;;;12.32;10.10;;;;;;;;;;21086680;28;20079;-68
2021/10/18 06:59:35;;;;;;;15.15;9.88;;;;;;;;;;21085789;28;20052;-68
2021/10/18 07:09:37;;;;;;;14.13;9.85;;;;;;;;;;21085015;28;20071;-67
2021/10/18 07:19:42;;;;;;;12.38;9.80;;;;;;;;;;21082160;28;20083;-67
2021/10/18 07:29:46;;;;;;;12.48;10.70;;;;;;;;;;21086140;28;20400;-69
2021/10/18 07:39:48;;;;;;;18.33;11.38;;;;;;;;;;21112987;28;20079;-68
2021/10/18 07:49:52;;;;;;;14.00;11.43;;;;;;;;;;21085357;28;20072;-69
2021/10/18 07:59:54;;;;;;;22.15;12.38;;;;;;;;;;21084146;28;20079;-68
2021/10/18 08:09:59;;;;;;;16.40;11.97;;;;;;;;;;21080375;28;20044;-67
2021/10/18 08:20:03;;;;;;;16.00;11.70;;;;;;;;;;21079633;28;20056;-68
2021/10/18 08:30:08;;;;;;;13.88;12.30;;;;;;;;;;21079768;28;20046;-68
2021/10/18 08:40:11;;;;;;;15.82;12.68;;;;;;;;;;21079487;28;20411;-69
2021/10/18 08:50:14;;;;;;;20.20;12.43;;;;;;;;;;21079063;28;20468;-68
2021/10/18 09:00:53;;;;;;;14.73;12.60;;;;;;;;;;21077909;28;20097;-68
2021/10/18 09:11:22;;;;;;;11.65;9.05;;;;;;;;;;20820673;28;20053;-68
2021/10/18 09:21:31;;;;;;;7.30;5.95;;;;;;;;;;20829177;28;20050;-69
2021/10/18 09:31:33;;;;;;;11.13;7.43;;;;;;;;;;20806881;28;20402;-70
2021/10/18 09:41:35;;;;;;;10.35;7.20;;;;;;;;;;20971643;28;20048;-68
2021/10/18 10:53:49;;;;;;;9.23;6.75;;;;;;;;;;21004997;28;20052;-62
2021/10/18 11:03:52;;;;;;;10.45;7.32;;;;;;;;;;21003185;28;20542;-71
2021/10/18 11:13:57;;;;;;;15.93;9.32;;;;;;;;;;21002413;28;20048;-60
2021/10/18 11:24:02;;;;;;;14.18;10.23;;;;;;;;;;21004933;28;20135;-67
2021/10/18 11:34:11;;;;;;;14.65;10.55;;;;;;;;;;20998561;28;20044;-61
2021/10/18 11:44:14;;;;;;;12.30;8.95;;;;;;;;;;20997781;28;20064;-59
2021/10/18 11:54:16;;;;;;;10.55;8.23;;;;;;;;;;20998163;28;20412;-62
2021/10/18 12:04:22;;;;;;;12.27;9.10;;;;;;;;;;20997341;28;20481;-65
2021/10/18 12:14:25;;;;;;;11.57;7.77;;;;;;;;;;21035298;28;20044;-65
2021/10/18 12:24:34;;;;;;;10.70;6.50;;;;;;;;;;21016858;28;20080;-64
2021/10/18 12:34:36;;;;;;;7.43;5.10;;;;;;;;;;20995423;28;20052;-64
2021/10/18 12:44:46;;;;;;;13.30;6.32;;;;;;;;;;20994762;28;20488;-69
2021/10/18 12:54:48;;;;;;;12.55;7.10;;;;;;;;;;21009166;28;20140;-69
2021/10/18 13:05:05;;;;;;;6.53;4.65;;;;;;;;;;21010693;28;20059;-69
2021/10/18 13:15:07;;;;;;;7.00;4.15;;;;;;;;;;21008996;28;20127;-68
2021/10/18 13:25:10;;;;;;;;;;;;;;;;;;21008966;28;20048;-70
2021/10/18 13:35:12;;;;;;;6.05;3.63;;;;;;;;;;21008301;28;19927;-67
2021/10/18 13:45:18;;;;;;;6.47;3.22;;;;;;;;;;21007387;28;20041;-69
2021/10/18 13:55:24;;;;;;;5.43;3.85;;;;;;;;;;21006933;28;20562;-67
2021/10/18 14:05:27;;;;;;;4.68;3.30;;;;;;;;;;21005375;28;20098;-68
2021/10/18 14:15:35;;;;;;;7.70;3.67;;;;;;;;;;21005415;28;20048;-69
2021/10/18 14:25:38;;;;;;;5.13;3.15;;;;;;;;;;21005029;28;20057;-67
2021/10/18 14:35:40;;;;;;;5.32;3.78;;;;;;;;;;21004132;28;20192;-70
2021/10/18 14:45:45;;;;;;;5.22;3.75;;;;;;;;;;21002852;28;20045;-56
2021/10/18 14:55:48;;;;;;;;;;;;;;;;;;21002331;28;20041;-58
2021/10/18 15:05:50;;;;;;;7.95;3.53;;;;;;;;;;21001605;28;19927;-58
2021/10/18 15:15:52;;;;;;;4.68;3.10;;;;;;;;;;20999253;28;20053;-62
2021/10/18 15:25:54;;;;;;;4.60;2.80;;;;;;;;;;20999965;28;20044;-64
2021/10/18 15:35:57;;;;;;;5.53;3.43;;;;;;;;;;20999263;28;20052;-60
2021/10/18 15:46:01;;;;;;;7.00;3.00;;;;;;;;;;20999069;28;20045;-59
2021/10/18 15:56:05;;;;;;;5.18;2.92;;;;;;;;;;20997709;28;20056;-58
2021/10/18 16:06:09;;;;;;;9.70;3.33;;;;;;;;;;20996796;28;20044;-57
2021/10/18 16:16:11;;;;;;;7.07;3.70;;;;;;;;;;20996250;28;20056;-54
2021/10/18 16:26:15;;;;;;;6.93;3.53;;;;;;;;;;20995418;28;20049;-61
2021/10/18 16:36:18;;;;;;;5.77;3.63;;;;;;;;;;20995453;28;20071;-58
2021/10/18 16:46:21;;;;;;;;;;;;;;;;;;20995356;28;20040;-58
2021/10/18 16:56:24;;;;;;;5.57;3.40;;;;;;;;;;20994274;28;19920;-53
2021/10/18 17:06:26;;;;;;;7.70;3.93;;;;;;;;;;20998695;28;20053;-65
2021/10/18 17:16:29;;;;;;;5.73;4.27;;;;;;;;;;20993554;28;20044;-67
2021/10/18 17:26:31;;;;;;;10.23;5.63;;;;;;;;;;20992087;28;20127;-68
2021/10/18 17:36:34;;;;;;;8.57;5.67;;;;;;;;;;21000647;28;20059;-65
2021/10/18 17:46:36;;;;;;;9.33;5.43;;;;;;;;;;21056020;28;20044;-66
2021/10/18 17:56:39;;;;;;;8.98;5.47;;;;;;;;;;21090625;28;20571;-66
2021/10/18 18:06:41;;;;;;;12.73;7.00;;;;;;;;;;21090415;28;20109;-60
2021/10/18 18:16:43;;;;;;;13.70;8.20;;;;;;;;;;21089266;28;20311;-66
2021/10/18 18:26:47;;;;;;;16.55;10.25;;;;;;;;;;21088673;28;20051;-61
2021/10/18 18:36:49;;;;;;;10.82;7.40;;;;;;;;;;21088839;28;20162;-61
2021/10/18 18:46:51;;;;;;;12.88;6.28;;;;;;;;;;21087206;28;20393;-63
2021/10/18 18:56:53;;;;;;;11.77;7.43;;;;;;;;;;21087701;28;20052;-63
2021/10/18 19:06:57;;;;;;;12.95;7.93;;;;;;;;;;21085836;28;20158;-66
2021/10/18 19:16:59;;;;;;;12.02;6.65;;;;;;;;;;21084680;28;20081;-66
2021/10/18 19:27:01;;;;;;;20.02;10.18;;;;;;;;;;21083916;28;20055;-67
2021/10/18 19:37:05;;;;;;;19.23;10.57;;;;;;;;;;21084355;28;20048;-62
2021/10/18 19:47:08;;;;;;;20.42;11.55;;;;;;;;;;21082965;28;20055;-62
2021/10/18 19:57:10;;;;;;;18.20;9.93;;;;;;;;;;21081086;28;20454;-65
2021/10/18 20:07:14;;;;;;;15.70;9.15;;;;;;;;;;21081334;28;20052;-61
2021/10/18 20:17:17;;;;;;;15.65;8.80;;;;;;;;;;21080619;28;20052;-60
2021/10/18 20:27:21;;;;;;;12.03;6.57;;;;;;;;;;21081408;28;20040;-66
2021/10/18 20:37:25;;;;;;;9.52;5.13;;;;;;;;;;21079613;28;20048;-61
2021/10/18 20:47:27;;;;;;;10.07;6.13;;;;;;;;;;21080209;28;20435;-67
2021/10/18 20:57:29;;;;;;;9.85;5.50;;;;;;;;;;21078141;28;20094;-63
2021/10/18 21:07:31;;;;;;;7.43;5.28;;;;;;;;;;21079439;28;20040;-63
2021/10/18 21:17:33;;;;;;;10.13;5.00;;;;;;;;;;21094035;28;20048;-68
2021/10/18 21:27:35;;;;;;;9.70;5.80;;;;;;;;;;21095319;28;20149;-67
2021/10/18 21:37:37;;;;;;;7.97;5.35;;;;;;;;;;21106389;28;20487;-66
2021/10/18 21:47:39;;;;;;;10.70;5.22;;;;;;;;;;21092272;28;20071;-68
2021/10/18 21:57:41;;;;;;;8.95;4.97;;;;;;;;;;21091422;28;20051;-66
2021/10/18 22:07:43;;;;;;;7.40;4.93;;;;;;;;;;21091051;28;20051;-65
2021/10/18 22:17:45;;;;;;;7.47;5.20;;;;;;;;;;21088981;28;20190;-64
2021/10/18 22:27:49;;;;;;;10.20;5.63;;;;;;;;;;21089894;28;20507;-69
2021/10/18 22:37:51;;;;;;;;;;;;;;;;;;21089433;28;20058;-64
2021/10/18 22:47:53;;;;;;;10.55;5.43;;;;;;;;;;21087824;28;19970;-64
2021/10/18 22:57:54;;;;;;;9.95;5.68;;;;;;;;;;21087197;28;20055;-62
2021/10/18 23:07:56;;;;;;;7.38;5.07;;;;;;;;;;21086958;28;20507;-66
2021/10/18 23:17:58;;;;;;;11.45;4.95;;;;;;;;;;21085464;28;20131;-67
2021/10/18 23:28:00;;;;;;;12.20;6.57;;;;;;;;;;21085037;28;20416;-65
2021/10/18 23:38:01;;;;;;;7.32;5.53;;;;;;;;;;21083209;28;20059;-64
2021/10/18 23:48:03;;;;;;;7.13;5.43;;;;;;;;;;21084171;28;20040;-68
2021/10/18 23:58:05;;;;;;;10.18;8.35;;;;;;;;;;21080399;28;20059;-68
